sensor_id;sensor_type;location;lat;lon;timestamp;temperature;humidity
40454;DHT22;26160;51.858;4.398;2023-07-20T00:01:50;16.60;99.90
40454;DHT22;26160;51.858;4.398;2023-07-20T00:04:16;16.50;99.90
40454;DHT22;26160;51.858;4.398;2023-07-20T00:06:42;16.50;99.90
40454;DHT22;26160;51.858;4.398;2023-07-20T00:09:08;16.50;99.90
40454;DHT22;26160;51.858;4.398;2023-07-20T00:11:36;16.50;99.90
40454;DHT22;26160;51.858;4.398;2023-07-20T00:14:06;16.50;99.90
40454;DHT22;26160;51.858;4.398;2023-07-20T00:16:32;16.40;99.90
40454;DHT22;26160;51.858;4.398;2023-07-20T00:18:58;16.40;99.90
40454;DHT22;26160;51.858;4.398;2023-07-20T00:21:25;16.40;99.90
40454;DHT22;26160;51.858;4.398;2023-07-20T00:23:51;16.40;99.90
40454;DHT22;26160;51.858;4.398;2023-07-20T00:26:17;16.40;99.90
40454;DHT22;26160;51.858;4.398;2023-07-20T00:28:43;16.40;99.90
40454;DHT22;26160;51.858;4.398;2023-07-20T00:31:09;16.40;99.90
40454;DHT22;26160;51.858;4.398;2023-07-20T00:33:35;16.40;99.90
40454;DHT22;26160;51.858;4.398;2023-07-20T00:36:02;16.40;99.90
40454;DHT22;26160;51.858;4.398;2023-07-20T00:38:28;16.40;99.90
40454;DHT22;26160;51.858;4.398;2023-07-20T00:40:54;16.40;99.90
40454;DHT22;26160;51.858;4.398;2023-07-20T00:43:20;16.40;99.90
40454;DHT22;26160;51.858;4.398;2023-07-20T00:45:46;16.40;99.90
40454;DHT22;26160;51.858;4.398;2023-07-20T00:48:13;16.40;99.90
40454;DHT22;26160;51.858;4.398;2023-07-20T00:50:40;16.40;99.90
40454;DHT22;26160;51.858;4.398;2023-07-20T00:53:07;16.30;99.90
40454;DHT22;26160;51.858;4.398;2023-07-20T00:55:34;16.30;99.90
40454;DHT22;26160;51.858;4.398;2023-07-20T00:58:01;16.30;99.90
40454;DHT22;26160;51.858;4.398;2023-07-20T01:03:03;16.20;99.90
40454;DHT22;26160;51.858;4.398;2023-07-20T01:05:47;16.20;99.90
40454;DHT22;26160;51.858;4.398;2023-07-20T01:11:57;16.10;99.90
40454;DHT22;26160;51.858;4.398;2023-07-20T01:13:55;16.10;99.90
40454;DHT22;26160;51.858;4.398;2023-07-20T01:16:22;16.10;99.90
40454;DHT22;26160;51.858;4.398;2023-07-20T01:18:48;16.00;99.90
40454;DHT22;26160;51.858;4.398;2023-07-20T01:21:19;16.10;99.90
40454;DHT22;26160;51.858;4.398;2023-07-20T01:24:09;16.00;99.90
40454;DHT22;26160;51.858;4.398;2023-07-20T01:32:35;15.90;99.90
40454;DHT22;26160;51.858;4.398;2023-07-20T01:35:02;15.90;99.90
40454;DHT22;26160;51.858;4.398;2023-07-20T01:37:31;15.90;99.90
40454;DHT22;26160;51.858;4.398;2023-07-20T01:39:58;15.90;99.90
40454;DHT22;26160;51.858;4.398;2023-07-20T01:42:26;15.80;99.90
40454;DHT22;26160;51.858;4.398;2023-07-20T01:44:52;15.80;99.90
40454;DHT22;26160;51.858;4.398;2023-07-20T01:47:22;15.80;99.90
40454;DHT22;26160;51.858;4.398;2023-07-20T01:49:48;15.80;99.90
40454;DHT22;26160;51.858;4.398;2023-07-20T01:52:14;15.80;99.90
40454;DHT22;26160;51.858;4.398;2023-07-20T01:54:41;15.80;99.90
40454;DHT22;26160;51.858;4.398;2023-07-20T01:57:07;15.70;99.90
40454;DHT22;26160;51.858;4.398;2023-07-20T01:59:33;15.70;99.90
40454;DHT22;26160;51.858;4.398;2023-07-20T02:01:59;15.70;99.90
40454;DHT22;26160;51.858;4.398;2023-07-20T02:04:25;15.60;99.90
40454;DHT22;26160;51.858;4.398;2023-07-20T02:06:51;15.60;99.90
40454;DHT22;26160;51.858;4.398;2023-07-20T02:09:17;15.60;99.90
40454;DHT22;26160;51.858;4.398;2023-07-20T02:11:43;15.60;99.90
40454;DHT22;26160;51.858;4.398;2023-07-20T02:14:09;15.50;99.90
40454;DHT22;26160;51.858;4.398;2023-07-20T02:16:36;15.50;99.90
40454;DHT22;26160;51.858;4.398;2023-07-20T02:19:02;15.50;99.90
40454;DHT22;26160;51.858;4.398;2023-07-20T02:21:29;15.50;99.90
40454;DHT22;26160;51.858;4.398;2023-07-20T02:23:55;15.50;99.90
40454;DHT22;26160;51.858;4.398;2023-07-20T02:26:21;15.50;99.90
40454;DHT22;26160;51.858;4.398;2023-07-20T02:28:47;15.50;99.90
40454;DHT22;26160;51.858;4.398;2023-07-20T02:31:13;15.40;99.90
40454;DHT22;26160;51.858;4.398;2023-07-20T02:33:39;15.40;99.90
40454;DHT22;26160;51.858;4.398;2023-07-20T02:36:05;15.40;99.90
40454;DHT22;26160;51.858;4.398;2023-07-20T02:38:31;15.40;99.90
40454;DHT22;26160;51.858;4.398;2023-07-20T02:40:58;15.40;99.90
40454;DHT22;26160;51.858;4.398;2023-07-20T02:43:24;15.40;99.90
40454;DHT22;26160;51.858;4.398;2023-07-20T02:45:50;15.40;99.90
40454;DHT22;26160;51.858;4.398;2023-07-20T02:48:16;15.40;99.90
40454;DHT22;26160;51.858;4.398;2023-07-20T02:50:43;15.40;99.90
40454;DHT22;26160;51.858;4.398;2023-07-20T02:53:10;15.40;99.90
40454;DHT22;26160;51.858;4.398;2023-07-20T02:55:36;15.40;99.90
40454;DHT22;26160;51.858;4.398;2023-07-20T02:58:02;15.40;99.90
40454;DHT22;26160;51.858;4.398;2023-07-20T03:00:28;15.50;99.90
40454;DHT22;26160;51.858;4.398;2023-07-20T03:02:54;15.50;99.90
40454;DHT22;26160;51.858;4.398;2023-07-20T03:05:22;15.60;99.90
40454;DHT22;26160;51.858;4.398;2023-07-20T03:07:51;15.60;99.90
40454;DHT22;26160;51.858;4.398;2023-07-20T03:10:17;15.60;99.90
40454;DHT22;26160;51.858;4.398;2023-07-20T03:12:43;15.60;99.90
40454;DHT22;26160;51.858;4.398;2023-07-20T03:15:09;15.50;99.90
40454;DHT22;26160;51.858;4.398;2023-07-20T03:17:36;15.50;99.90
40454;DHT22;26160;51.858;4.398;2023-07-20T03:20:02;15.50;99.90
40454;DHT22;26160;51.858;4.398;2023-07-20T03:22:28;15.40;99.90
40454;DHT22;26160;51.858;4.398;2023-07-20T03:24:55;15.30;99.90
40454;DHT22;26160;51.858;4.398;2023-07-20T03:27:21;15.30;99.90
40454;DHT22;26160;51.858;4.398;2023-07-20T03:29:47;15.30;99.90
40454;DHT22;26160;51.858;4.398;2023-07-20T03:32:13;15.20;99.90
40454;DHT22;26160;51.858;4.398;2023-07-20T03:34:40;15.10;99.90
40454;DHT22;26160;51.858;4.398;2023-07-20T03:37:06;15.00;99.90
40454;DHT22;26160;51.858;4.398;2023-07-20T03:39:32;15.00;99.90
40454;DHT22;26160;51.858;4.398;2023-07-20T03:41:58;15.00;99.90
40454;DHT22;26160;51.858;4.398;2023-07-20T03:44:25;15.00;99.90
40454;DHT22;26160;51.858;4.398;2023-07-20T03:46:51;15.10;99.90
40454;DHT22;26160;51.858;4.398;2023-07-20T03:49:17;15.10;99.90
40454;DHT22;26160;51.858;4.398;2023-07-20T03:51:43;15.10;99.90
40454;DHT22;26160;51.858;4.398;2023-07-20T03:54:10;15.20;99.90
40454;DHT22;26160;51.858;4.398;2023-07-20T03:56:36;15.20;99.90
40454;DHT22;26160;51.858;4.398;2023-07-20T03:59:02;15.30;99.90
40454;DHT22;26160;51.858;4.398;2023-07-20T04:01:28;15.30;99.90
40454;DHT22;26160;51.858;4.398;2023-07-20T04:03:54;15.40;99.90
40454;DHT22;26160;51.858;4.398;2023-07-20T04:06:21;15.40;99.90
40454;DHT22;26160;51.858;4.398;2023-07-20T04:08:48;15.50;99.90
40454;DHT22;26160;51.858;4.398;2023-07-20T04:11:14;15.50;99.90
40454;DHT22;26160;51.858;4.398;2023-07-20T04:13:40;15.60;99.90
40454;DHT22;26160;51.858;4.398;2023-07-20T04:16:06;15.70;99.90
40454;DHT22;26160;51.858;4.398;2023-07-20T04:18:32;15.70;99.90
40454;DHT22;26160;51.858;4.398;2023-07-20T04:20:58;15.80;99.90
40454;DHT22;26160;51.858;4.398;2023-07-20T04:23:24;15.90;99.90
40454;DHT22;26160;51.858;4.398;2023-07-20T04:25:51;16.00;99.90
40454;DHT22;26160;51.858;4.398;2023-07-20T04:28:17;16.10;99.90
40454;DHT22;26160;51.858;4.398;2023-07-20T04:30:43;16.20;99.90
40454;DHT22;26160;51.858;4.398;2023-07-20T04:33:09;16.20;99.90
40454;DHT22;26160;51.858;4.398;2023-07-20T04:38:15;16.40;99.90
40454;DHT22;26160;51.858;4.398;2023-07-20T04:40:47;16.40;99.90
40454;DHT22;26160;51.858;4.398;2023-07-20T04:43:17;16.40;99.90
40454;DHT22;26160;51.858;4.398;2023-07-20T04:45:44;16.40;99.90
40454;DHT22;26160;51.858;4.398;2023-07-20T04:48:11;16.50;99.90
40454;DHT22;26160;51.858;4.398;2023-07-20T04:50:40;16.60;99.90
40454;DHT22;26160;51.858;4.398;2023-07-20T04:53:06;16.60;99.90
40454;DHT22;26160;51.858;4.398;2023-07-20T04:55:33;16.70;99.90
40454;DHT22;26160;51.858;4.398;2023-07-20T04:58:03;16.80;99.90
40454;DHT22;26160;51.858;4.398;2023-07-20T05:00:30;16.80;99.90
40454;DHT22;26160;51.858;4.398;2023-07-20T05:02:56;16.80;99.90
40454;DHT22;26160;51.858;4.398;2023-07-20T05:05:22;16.80;99.90
40454;DHT22;26160;51.858;4.398;2023-07-20T05:07:48;16.80;99.90
40454;DHT22;26160;51.858;4.398;2023-07-20T05:10:14;16.80;99.90
40454;DHT22;26160;51.858;4.398;2023-07-20T05:12:41;16.80;99.90
40454;DHT22;26160;51.858;4.398;2023-07-20T05:15:07;16.80;99.90
40454;DHT22;26160;51.858;4.398;2023-07-20T05:17:33;16.90;99.90
40454;DHT22;26160;51.858;4.398;2023-07-20T05:19:59;16.90;99.90
40454;DHT22;26160;51.858;4.398;2023-07-20T05:22:26;17.10;99.90
40454;DHT22;26160;51.858;4.398;2023-07-20T05:24:52;17.20;99.90
40454;DHT22;26160;51.858;4.398;2023-07-20T05:27:18;17.40;99.90
40454;DHT22;26160;51.858;4.398;2023-07-20T05:29:47;17.60;99.90
40454;DHT22;26160;51.858;4.398;2023-07-20T05:32:13;17.70;99.90
40454;DHT22;26160;51.858;4.398;2023-07-20T05:34:40;18.00;99.90
40454;DHT22;26160;51.858;4.398;2023-07-20T05:37:06;18.20;99.90
40454;DHT22;26160;51.858;4.398;2023-07-20T05:39:33;18.40;99.90
40454;DHT22;26160;51.858;4.398;2023-07-20T05:41:59;18.50;99.90
40454;DHT22;26160;51.858;4.398;2023-07-20T05:44:25;18.50;99.90
40454;DHT22;26160;51.858;4.398;2023-07-20T05:46:51;18.60;99.90
40454;DHT22;26160;51.858;4.398;2023-07-20T05:49:20;18.60;99.90
40454;DHT22;26160;51.858;4.398;2023-07-20T05:51:46;18.70;99.90
40454;DHT22;26160;51.858;4.398;2023-07-20T05:54:13;18.80;99.90
40454;DHT22;26160;51.858;4.398;2023-07-20T05:56:39;18.90;99.90
40454;DHT22;26160;51.858;4.398;2023-07-20T05:59:06;19.00;99.90
40454;DHT22;26160;51.858;4.398;2023-07-20T06:01:32;19.00;99.90
40454;DHT22;26160;51.858;4.398;2023-07-20T06:03:58;19.00;99.90
40454;DHT22;26160;51.858;4.398;2023-07-20T06:06:24;18.90;99.90
40454;DHT22;26160;51.858;4.398;2023-07-20T06:08:51;18.70;99.90
40454;DHT22;26160;51.858;4.398;2023-07-20T06:11:18;18.90;99.90
40454;DHT22;26160;51.858;4.398;2023-07-20T06:13:44;18.90;99.90
40454;DHT22;26160;51.858;4.398;2023-07-20T06:16:10;18.80;99.90
40454;DHT22;26160;51.858;4.398;2023-07-20T06:18:36;18.70;99.90
40454;DHT22;26160;51.858;4.398;2023-07-20T06:21:02;18.70;99.90
40454;DHT22;26160;51.858;4.398;2023-07-20T06:23:28;18.70;99.90
40454;DHT22;26160;51.858;4.398;2023-07-20T06:25:54;18.80;99.90
40454;DHT22;26160;51.858;4.398;2023-07-20T06:28:20;18.60;99.90
40454;DHT22;26160;51.858;4.398;2023-07-20T06:30:46;18.60;99.90
40454;DHT22;26160;51.858;4.398;2023-07-20T06:33:13;18.50;99.90
40454;DHT22;26160;51.858;4.398;2023-07-20T06:35:41;18.50;99.90
40454;DHT22;26160;51.858;4.398;2023-07-20T06:38:08;18.50;99.00
40454;DHT22;26160;51.858;4.398;2023-07-20T06:40:35;18.50;99.90
40454;DHT22;26160;51.858;4.398;2023-07-20T06:43:01;18.60;99.90
40454;DHT22;26160;51.858;4.398;2023-07-20T06:45:27;18.70;99.30
40454;DHT22;26160;51.858;4.398;2023-07-20T06:47:53;18.80;99.90
40454;DHT22;26160;51.858;4.398;2023-07-20T06:50:19;18.80;99.90
40454;DHT22;26160;51.858;4.398;2023-07-20T06:52:45;18.80;99.90
40454;DHT22;26160;51.858;4.398;2023-07-20T06:55:13;18.90;99.90
40454;DHT22;26160;51.858;4.398;2023-07-20T06:57:40;18.90;99.40
40454;DHT22;26160;51.858;4.398;2023-07-20T07:00:07;18.80;97.00
40454;DHT22;26160;51.858;4.398;2023-07-20T07:02:33;18.80;99.90
40454;DHT22;26160;51.858;4.398;2023-07-20T07:05:00;18.80;99.90
40454;DHT22;26160;51.858;4.398;2023-07-20T07:07:27;18.80;97.00
40454;DHT22;26160;51.858;4.398;2023-07-20T07:09:54;18.90;95.30
40454;DHT22;26160;51.858;4.398;2023-07-20T07:12:20;19.10;99.90
40454;DHT22;26160;51.858;4.398;2023-07-20T07:14:46;19.10;99.10
40454;DHT22;26160;51.858;4.398;2023-07-20T07:17:12;19.10;90.60
40454;DHT22;26160;51.858;4.398;2023-07-20T07:19:38;19.30;90.60
40454;DHT22;26160;51.858;4.398;2023-07-20T07:22:04;19.90;99.90
40454;DHT22;26160;51.858;4.398;2023-07-20T07:24:30;20.50;81.30
40454;DHT22;26160;51.858;4.398;2023-07-20T07:27:02;20.70;65.90
40454;DHT22;26160;51.858;4.398;2023-07-20T07:29:29;20.60;99.90
40454;DHT22;26160;51.858;4.398;2023-07-20T07:31:55;20.40;99.90
40454;DHT22;26160;51.858;4.398;2023-07-20T07:34:21;20.50;99.90
40454;DHT22;26160;51.858;4.398;2023-07-20T07:36:48;20.50;99.90
40454;DHT22;26160;51.858;4.398;2023-07-20T07:39:14;20.40;99.90
40454;DHT22;26160;51.858;4.398;2023-07-20T07:41:40;20.30;64.50
40454;DHT22;26160;51.858;4.398;2023-07-20T07:44:06;20.20;82.50
40454;DHT22;26160;51.858;4.398;2023-07-20T07:46:32;20.20;77.50
40454;DHT22;26160;51.858;4.398;2023-07-20T07:48:58;20.40;77.70
40454;DHT22;26160;51.858;4.398;2023-07-20T07:51:24;20.70;99.90
40454;DHT22;26160;51.858;4.398;2023-07-20T07:53:50;20.60;99.90
40454;DHT22;26160;51.858;4.398;2023-07-20T07:56:16;20.30;68.00
40454;DHT22;26160;51.858;4.398;2023-07-20T07:58:43;20.00;67.70
40454;DHT22;26160;51.858;4.398;2023-07-20T08:01:09;19.60;76.20
40454;DHT22;26160;51.858;4.398;2023-07-20T08:03:35;19.30;91.00
40454;DHT22;26160;51.858;4.398;2023-07-20T08:06:02;19.20;91.70
40454;DHT22;26160;51.858;4.398;2023-07-20T08:08:32;19.00;90.70
40454;DHT22;26160;51.858;4.398;2023-07-20T08:10:58;18.80;95.30
40454;DHT22;26160;51.858;4.398;2023-07-20T08:13:24;18.60;96.60
40454;DHT22;26160;51.858;4.398;2023-07-20T08:15:51;18.40;99.90
40454;DHT22;26160;51.858;4.398;2023-07-20T08:18:17;18.10;99.90
40454;DHT22;26160;51.858;4.398;2023-07-20T08:20:44;18.10;99.90
40454;DHT22;26160;51.858;4.398;2023-07-20T08:23:10;18.10;99.90
40454;DHT22;26160;51.858;4.398;2023-07-20T08:25:37;18.10;99.90
40454;DHT22;26160;51.858;4.398;2023-07-20T08:28:05;18.20;99.90
40454;DHT22;26160;51.858;4.398;2023-07-20T08:30:45;18.20;99.90
40454;DHT22;26160;51.858;4.398;2023-07-20T08:33:13;18.20;99.90
40454;DHT22;26160;51.858;4.398;2023-07-20T08:35:40;18.40;99.90
40454;DHT22;26160;51.858;4.398;2023-07-20T08:38:06;18.50;99.90
40454;DHT22;26160;51.858;4.398;2023-07-20T08:40:38;19.10;97.20
40454;DHT22;26160;51.858;4.398;2023-07-20T08:43:05;20.00;99.90
40454;DHT22;26160;51.858;4.398;2023-07-20T08:45:33;20.70;74.00
40454;DHT22;26160;51.858;4.398;2023-07-20T08:48:01;21.40;99.90
40454;DHT22;26160;51.858;4.398;2023-07-20T08:50:30;22.00;99.90
40454;DHT22;26160;51.858;4.398;2023-07-20T08:52:58;22.40;99.90
40454;DHT22;26160;51.858;4.398;2023-07-20T08:55:26;22.50;99.90
40454;DHT22;26160;51.858;4.398;2023-07-20T08:57:57;21.90;99.90
40454;DHT22;26160;51.858;4.398;2023-07-20T09:00:24;21.60;51.60
40454;DHT22;26160;51.858;4.398;2023-07-20T09:02:52;21.30;99.90
40454;DHT22;26160;51.858;4.398;2023-07-20T09:05:19;21.00;57.90
40454;DHT22;26160;51.858;4.398;2023-07-20T09:07:46;20.80;99.90
40454;DHT22;26160;51.858;4.398;2023-07-20T09:10:12;20.70;64.60
40454;DHT22;26160;51.858;4.398;2023-07-20T09:12:41;20.60;99.90
40454;DHT22;26160;51.858;4.398;2023-07-20T09:15:09;20.60;99.90
40454;DHT22;26160;51.858;4.398;2023-07-20T09:17:35;21.10;58.70
40454;DHT22;26160;51.858;4.398;2023-07-20T09:20:06;21.80;99.90
40454;DHT22;26160;51.858;4.398;2023-07-20T09:22:34;22.00;99.90
40454;DHT22;26160;51.858;4.398;2023-07-20T09:25:00;21.90;57.80
40454;DHT22;26160;51.858;4.398;2023-07-20T09:27:35;21.70;99.90
40454;DHT22;26160;51.858;4.398;2023-07-20T09:30:02;21.40;99.90
40454;DHT22;26160;51.858;4.398;2023-07-20T09:32:29;21.30;99.90
40454;DHT22;26160;51.858;4.398;2023-07-20T09:34:55;21.10;38.80
40454;DHT22;26160;51.858;4.398;2023-07-20T09:37:22;21.50;99.90
40454;DHT22;26160;51.858;4.398;2023-07-20T09:39:51;22.20;99.90
40454;DHT22;26160;51.858;4.398;2023-07-20T09:42:18;22.00;16.50
40454;DHT22;26160;51.858;4.398;2023-07-20T09:44:44;21.90;10.40
40454;DHT22;26160;51.858;4.398;2023-07-20T09:47:10;21.70;1.00
40454;DHT22;26160;51.858;4.398;2023-07-20T09:49:41;21.30;1.00
40454;DHT22;26160;51.858;4.398;2023-07-20T09:52:11;21.00;30.00
40454;DHT22;26160;51.858;4.398;2023-07-20T09:54:38;20.90;1.00
40454;DHT22;26160;51.858;4.398;2023-07-20T09:57:07;20.90;55.10
40454;DHT22;26160;51.858;4.398;2023-07-20T09:59:34;20.70;1.00
40454;DHT22;26160;51.858;4.398;2023-07-20T10:02:03;20.40;5.50
40454;DHT22;26160;51.858;4.398;2023-07-20T10:04:33;20.40;21.50
40454;DHT22;26160;51.858;4.398;2023-07-20T10:07:05;20.40;22.40
40454;DHT22;26160;51.858;4.398;2023-07-20T10:09:39;20.70;1.00
40454;DHT22;26160;51.858;4.398;2023-07-20T10:12:07;21.20;1.00
40454;DHT22;26160;51.858;4.398;2023-07-20T10:14:41;22.10;1.00
40454;DHT22;26160;51.858;4.398;2023-07-20T10:17:07;22.90;1.00
40454;DHT22;26160;51.858;4.398;2023-07-20T10:19:43;23.10;1.00
40454;DHT22;26160;51.858;4.398;2023-07-20T10:22:19;23.00;1.00
40454;DHT22;26160;51.858;4.398;2023-07-20T10:24:47;22.80;1.00
40454;DHT22;26160;51.858;4.398;2023-07-20T10:27:14;22.30;1.00
40454;DHT22;26160;51.858;4.398;2023-07-20T10:29:41;21.80;1.00
40454;DHT22;26160;51.858;4.398;2023-07-20T10:32:09;21.60;1.00
40454;DHT22;26160;51.858;4.398;2023-07-20T10:34:36;21.40;1.00
40454;DHT22;26160;51.858;4.398;2023-07-20T10:37:03;21.50;1.00
40454;DHT22;26160;51.858;4.398;2023-07-20T10:39:31;21.60;1.00
40454;DHT22;26160;51.858;4.398;2023-07-20T10:42:07;21.70;1.00
40454;DHT22;26160;51.858;4.398;2023-07-20T10:44:34;21.80;1.00
40454;DHT22;26160;51.858;4.398;2023-07-20T10:47:09;22.10;1.00
40454;DHT22;26160;51.858;4.398;2023-07-20T10:49:59;22.40;1.00
40454;DHT22;26160;51.858;4.398;2023-07-20T10:52:41;22.30;1.00
40454;DHT22;26160;51.858;4.398;2023-07-20T10:55:17;22.40;1.00
40454;DHT22;26160;51.858;4.398;2023-07-20T10:57:43;22.70;1.00
40454;DHT22;26160;51.858;4.398;2023-07-20T11:00:11;22.60;1.00
40454;DHT22;26160;51.858;4.398;2023-07-20T11:02:46;22.50;1.00
40454;DHT22;26160;51.858;4.398;2023-07-20T11:05:32;22.30;1.00
40454;DHT22;26160;51.858;4.398;2023-07-20T11:07:58;22.80;1.00
40454;DHT22;26160;51.858;4.398;2023-07-20T11:10:24;23.20;1.00
40454;DHT22;26160;51.858;4.398;2023-07-20T11:13:18;23.10;1.00
40454;DHT22;26160;51.858;4.398;2023-07-20T11:18:27;23.20;1.00
40454;DHT22;26160;51.858;4.398;2023-07-20T11:20:54;23.60;1.00
40454;DHT22;26160;51.858;4.398;2023-07-20T11:23:20;23.50;1.00
40454;DHT22;26160;51.858;4.398;2023-07-20T11:25:47;23.10;1.00
40454;DHT22;26160;51.858;4.398;2023-07-20T11:28:13;22.90;1.00
40454;DHT22;26160;51.858;4.398;2023-07-20T11:30:39;23.40;1.00
40454;DHT22;26160;51.858;4.398;2023-07-20T11:33:08;24.10;1.00
40454;DHT22;26160;51.858;4.398;2023-07-20T11:35:44;24.40;99.90
40454;DHT22;26160;51.858;4.398;2023-07-20T11:38:12;24.20;1.00
40454;DHT22;26160;51.858;4.398;2023-07-20T11:40:46;23.80;99.90
40454;DHT22;26160;51.858;4.398;2023-07-20T11:43:13;23.30;99.90
40454;DHT22;26160;51.858;4.398;2023-07-20T11:45:39;22.80;99.90
40454;DHT22;26160;51.858;4.398;2023-07-20T11:48:06;22.60;1.00
40454;DHT22;26160;51.858;4.398;2023-07-20T11:50:32;22.50;1.00
40454;DHT22;26160;51.858;4.398;2023-07-20T11:53:04;22.60;1.00
40454;DHT22;26160;51.858;4.398;2023-07-20T11:55:30;22.50;1.00
40454;DHT22;26160;51.858;4.398;2023-07-20T11:58:04;22.50;1.00
40454;DHT22;26160;51.858;4.398;2023-07-20T12:00:31;22.50;1.00
40454;DHT22;26160;51.858;4.398;2023-07-20T12:02:58;22.60;1.00
40454;DHT22;26160;51.858;4.398;2023-07-20T12:05:25;22.50;99.90
40454;DHT22;26160;51.858;4.398;2023-07-20T12:07:52;22.50;1.00
40454;DHT22;26160;51.858;4.398;2023-07-20T12:10:24;22.40;1.00
40454;DHT22;26160;51.858;4.398;2023-07-20T12:12:52;22.30;1.00
40454;DHT22;26160;51.858;4.398;2023-07-20T12:15:23;22.30;1.00
40454;DHT22;26160;51.858;4.398;2023-07-20T12:17:52;22.80;99.90
40454;DHT22;26160;51.858;4.398;2023-07-20T12:22:51;23.10;1.00
40454;DHT22;26160;51.858;4.398;2023-07-20T12:25:18;23.00;1.00
40454;DHT22;26160;51.858;4.398;2023-07-20T12:27:46;22.80;1.00
40454;DHT22;26160;51.858;4.398;2023-07-20T12:30:13;22.80;1.00
40454;DHT22;26160;51.858;4.398;2023-07-20T12:32:40;22.80;1.00
40454;DHT22;26160;51.858;4.398;2023-07-20T12:35:06;22.60;1.00
40454;DHT22;26160;51.858;4.398;2023-07-20T12:37:32;22.50;1.00
40454;DHT22;26160;51.858;4.398;2023-07-20T12:39:58;22.50;1.00
40454;DHT22;26160;51.858;4.398;2023-07-20T12:42:24;22.70;1.00
40454;DHT22;26160;51.858;4.398;2023-07-20T12:44:50;22.80;1.00
40454;DHT22;26160;51.858;4.398;2023-07-20T12:47:18;22.90;1.00
40454;DHT22;26160;51.858;4.398;2023-07-20T12:49:44;22.90;1.00
40454;DHT22;26160;51.858;4.398;2023-07-20T12:52:13;22.90;1.00
40454;DHT22;26160;51.858;4.398;2023-07-20T12:54:39;23.30;1.00
40454;DHT22;26160;51.858;4.398;2023-07-20T12:57:06;23.40;1.00
40454;DHT22;26160;51.858;4.398;2023-07-20T12:59:32;23.70;1.00
40454;DHT22;26160;51.858;4.398;2023-07-20T13:01:58;24.00;1.00
40454;DHT22;26160;51.858;4.398;2023-07-20T13:04:24;24.00;1.00
40454;DHT22;26160;51.858;4.398;2023-07-20T13:06:50;24.10;1.00
40454;DHT22;26160;51.858;4.398;2023-07-20T13:09:17;23.90;1.00
40454;DHT22;26160;51.858;4.398;2023-07-20T13:11:43;23.80;99.90
40454;DHT22;26160;51.858;4.398;2023-07-20T13:14:10;23.90;99.90
40454;DHT22;26160;51.858;4.398;2023-07-20T13:16:37;24.10;99.90
40454;DHT22;26160;51.858;4.398;2023-07-20T13:19:03;24.00;1.00
40454;DHT22;26160;51.858;4.398;2023-07-20T13:21:29;23.70;1.00
40454;DHT22;26160;51.858;4.398;2023-07-20T13:23:55;23.40;99.90
40454;DHT22;26160;51.858;4.398;2023-07-20T13:26:22;23.20;99.90
40454;DHT22;26160;51.858;4.398;2023-07-20T13:28:48;23.40;99.90
40454;DHT22;26160;51.858;4.398;2023-07-20T13:31:14;23.90;1.00
40454;DHT22;26160;51.858;4.398;2023-07-20T13:33:40;24.10;99.90
40454;DHT22;26160;51.858;4.398;2023-07-20T13:36:06;23.80;1.00
40454;DHT22;26160;51.858;4.398;2023-07-20T13:38:32;23.70;1.00
40454;DHT22;26160;51.858;4.398;2023-07-20T13:40:58;23.80;99.90
40454;DHT22;26160;51.858;4.398;2023-07-20T13:43:24;23.80;1.00
40454;DHT22;26160;51.858;4.398;2023-07-20T13:45:51;23.90;99.90
40454;DHT22;26160;51.858;4.398;2023-07-20T13:48:17;24.00;1.00
40454;DHT22;26160;51.858;4.398;2023-07-20T13:50:46;23.90;99.90
40454;DHT22;26160;51.858;4.398;2023-07-20T13:53:12;23.30;99.90
40454;DHT22;26160;51.858;4.398;2023-07-20T13:55:39;22.80;1.00
40454;DHT22;26160;51.858;4.398;2023-07-20T13:58:05;22.50;99.90
40454;DHT22;26160;51.858;4.398;2023-07-20T14:00:31;22.50;1.00
40454;DHT22;26160;51.858;4.398;2023-07-20T14:02:59;22.60;1.00
40454;DHT22;26160;51.858;4.398;2023-07-20T14:05:25;22.40;99.90
40454;DHT22;26160;51.858;4.398;2023-07-20T14:07:51;22.30;1.00
40454;DHT22;26160;51.858;4.398;2023-07-20T14:10:17;22.20;99.90
40454;DHT22;26160;51.858;4.398;2023-07-20T14:12:44;22.30;1.00
40454;DHT22;26160;51.858;4.398;2023-07-20T14:15:10;22.60;1.00
40454;DHT22;26160;51.858;4.398;2023-07-20T14:17:37;22.70;34.30
40454;DHT22;26160;51.858;4.398;2023-07-20T14:20:03;23.10;1.00
40454;DHT22;26160;51.858;4.398;2023-07-20T14:22:34;23.30;25.70
40454;DHT22;26160;51.858;4.398;2023-07-20T14:25:00;23.10;1.00
40454;DHT22;26160;51.858;4.398;2023-07-20T14:27:26;23.40;99.90
40454;DHT22;26160;51.858;4.398;2023-07-20T14:29:52;23.50;26.20
40454;DHT22;26160;51.858;4.398;2023-07-20T14:32:19;23.30;1.00
40454;DHT22;26160;51.858;4.398;2023-07-20T14:34:45;23.20;99.90
40454;DHT22;26160;51.858;4.398;2023-07-20T14:37:11;23.20;99.90
40454;DHT22;26160;51.858;4.398;2023-07-20T14:39:38;23.30;1.00
40454;DHT22;26160;51.858;4.398;2023-07-20T14:42:04;23.20;1.00
40454;DHT22;26160;51.858;4.398;2023-07-20T14:46:58;23.50;99.90
40454;DHT22;26160;51.858;4.398;2023-07-20T14:49:26;23.80;1.00
40454;DHT22;26160;51.858;4.398;2023-07-20T14:51:52;23.70;1.00
40454;DHT22;26160;51.858;4.398;2023-07-20T14:54:19;23.40;1.00
40454;DHT22;26160;51.858;4.398;2023-07-20T14:56:51;23.10;1.00
40454;DHT22;26160;51.858;4.398;2023-07-20T14:59:19;22.90;1.00
40454;DHT22;26160;51.858;4.398;2023-07-20T15:01:46;22.80;59.90
40454;DHT22;26160;51.858;4.398;2023-07-20T15:04:13;22.80;1.00
40454;DHT22;26160;51.858;4.398;2023-07-20T15:06:41;22.70;99.90
40454;DHT22;26160;51.858;4.398;2023-07-20T15:09:07;22.50;38.80
40454;DHT22;26160;51.858;4.398;2023-07-20T15:11:35;22.40;99.90
40454;DHT22;26160;51.858;4.398;2023-07-20T15:14:02;22.30;99.90
40454;DHT22;26160;51.858;4.398;2023-07-20T15:16:28;22.30;1.00
40454;DHT22;26160;51.858;4.398;2023-07-20T15:18:54;22.20;45.40
40454;DHT22;26160;51.858;4.398;2023-07-20T15:21:20;22.30;99.90
40454;DHT22;26160;51.858;4.398;2023-07-20T15:23:46;22.20;1.00
40454;DHT22;26160;51.858;4.398;2023-07-20T15:26:12;22.10;1.00
40454;DHT22;26160;51.858;4.398;2023-07-20T15:28:39;22.10;1.00
40454;DHT22;26160;51.858;4.398;2023-07-20T15:31:06;22.10;99.90
40454;DHT22;26160;51.858;4.398;2023-07-20T15:33:33;22.10;99.90
40454;DHT22;26160;51.858;4.398;2023-07-20T15:35:59;22.20;1.00
40454;DHT22;26160;51.858;4.398;2023-07-20T15:38:25;22.10;83.70
40454;DHT22;26160;51.858;4.398;2023-07-20T15:40:52;22.10;99.90
40454;DHT22;26160;51.858;4.398;2023-07-20T15:43:19;22.10;99.90
40454;DHT22;26160;51.858;4.398;2023-07-20T15:45:47;22.20;99.90
40454;DHT22;26160;51.858;4.398;2023-07-20T15:48:16;22.10;1.00
40454;DHT22;26160;51.858;4.398;2023-07-20T15:50:43;22.20;44.90
40454;DHT22;26160;51.858;4.398;2023-07-20T15:53:11;22.20;1.00
40454;DHT22;26160;51.858;4.398;2023-07-20T15:55:37;22.20;1.00
40454;DHT22;26160;51.858;4.398;2023-07-20T15:58:03;22.20;1.00